sensor_id;sensor_type;location;lat;lon;timestamp;pressure;altitude;pressure_sealevel;temperature;humidity
16525;BME280;8375;33.594;-117.718;2023-05-22T00:00:01;100133.19;;;22.51;65.48
16525;BME280;8375;33.594;-117.718;2023-05-22T00:02:33;100124.16;;;22.39;65.28
16525;BME280;8375;33.594;-117.718;2023-05-22T00:05:06;100128.44;;;22.33;66.33
16525;BME280;8375;33.594;-117.718;2023-05-22T00:07:35;100128.78;;;22.23;66.22
16525;BME280;8375;33.594;-117.718;2023-05-22T00:10:05;100131.47;;;22.30;66.44
16525;BME280;8375;33.594;-117.718;2023-05-22T00:12:34;100136.25;;;22.13;66.81
16525;BME280;8375;33.594;-117.718;2023-05-22T00:15:04;100134.84;;;22.17;66.79
16525;BME280;8375;33.594;-117.718;2023-05-22T00:17:33;100134.44;;;22.13;66.72
16525;BME280;8375;33.594;-117.718;2023-05-22T00:20:02;100136.97;;;21.93;67.24
16525;BME280;8375;33.594;-117.718;2023-05-22T00:22:34;100133.84;;;21.83;67.16
16525;BME280;8375;33.594;-117.718;2023-05-22T00:25:03;100132.63;;;21.79;68.06
16525;BME280;8375;33.594;-117.718;2023-05-22T00:27:32;100134.25;;;21.80;67.68
16525;BME280;8375;33.594;-117.718;2023-05-22T00:30:01;100134.41;;;21.72;67.54
16525;BME280;8375;33.594;-117.718;2023-05-22T00:32:30;100140.94;;;21.76;68.25
16525;BME280;8375;33.594;-117.718;2023-05-22T00:34:59;100140.13;;;21.75;68.16
16525;BME280;8375;33.594;-117.718;2023-05-22T00:37:27;100134.72;;;21.62;68.28
16525;BME280;8375;33.594;-117.718;2023-05-22T00:39:58;100123.19;;;21.41;69.08
16525;BME280;8375;33.594;-117.718;2023-05-22T00:42:27;100129.47;;;21.18;69.19
16525;BME280;8375;33.594;-117.718;2023-05-22T00:44:56;100133.47;;;20.71;71.57
16525;BME280;8375;33.594;-117.718;2023-05-22T00:47:28;100125.28;;;20.65;71.83
16525;BME280;8375;33.594;-117.718;2023-05-22T00:49:57;100129.50;;;20.45;72.77
16525;BME280;8375;33.594;-117.718;2023-05-22T00:52:26;100125.09;;;19.85;75.24
16525;BME280;8375;33.594;-117.718;2023-05-22T00:54:57;100120.81;;;19.84;75.55
16525;BME280;8375;33.594;-117.718;2023-05-22T00:57:26;100124.16;;;19.63;76.98
16525;BME280;8375;33.594;-117.718;2023-05-22T00:59:55;100129.84;;;19.52;77.61
16525;BME280;8375;33.594;-117.718;2023-05-22T01:02:24;100136.22;;;19.57;77.83
16525;BME280;8375;33.594;-117.718;2023-05-22T01:04:53;100139.00;;;19.17;79.45
16525;BME280;8375;33.594;-117.718;2023-05-22T01:07:23;100147.16;;;19.08;80.58
16525;BME280;8375;33.594;-117.718;2023-05-22T01:09:54;100139.16;;;18.92;80.94
16525;BME280;8375;33.594;-117.718;2023-05-22T01:12:29;100142.38;;;18.80;82.07
16525;BME280;8375;33.594;-117.718;2023-05-22T01:15:04;100139.78;;;18.71;82.99
16525;BME280;8375;33.594;-117.718;2023-05-22T01:17:38;100131.59;;;18.89;82.83
16525;BME280;8375;33.594;-117.718;2023-05-22T01:20:17;100137.97;;;18.72;82.87
16525;BME280;8375;33.594;-117.718;2023-05-22T01:23:02;100136.09;;;18.49;84.53
16525;BME280;8375;33.594;-117.718;2023-05-22T01:29:27;100143.69;;;18.44;84.96
16525;BME280;8375;33.594;-117.718;2023-05-22T01:32:00;100147.31;;;18.43;84.58
16525;BME280;8375;33.594;-117.718;2023-05-22T01:34:30;100144.75;;;18.18;85.37
16525;BME280;8375;33.594;-117.718;2023-05-22T01:37:03;100139.16;;;18.29;86.05
16525;BME280;8375;33.594;-117.718;2023-05-22T01:39:33;100138.88;;;18.47;85.29
16525;BME280;8375;33.594;-117.718;2023-05-22T01:42:03;100141.34;;;18.49;84.85
16525;BME280;8375;33.594;-117.718;2023-05-22T01:44:33;100142.13;;;18.18;86.71
16525;BME280;8375;33.594;-117.718;2023-05-22T01:47:03;100141.84;;;17.96;87.78
16525;BME280;8375;33.594;-117.718;2023-05-22T01:49:34;100148.25;;;17.77;88.43
16525;BME280;8375;33.594;-117.718;2023-05-22T01:52:09;100154.16;;;17.87;88.94
16525;BME280;8375;33.594;-117.718;2023-05-22T01:54:44;100161.56;;;18.00;87.76
16525;BME280;8375;33.594;-117.718;2023-05-22T01:57:20;100166.13;;;17.98;86.46
16525;BME280;8375;33.594;-117.718;2023-05-22T01:59:57;100161.22;;;17.87;86.89
16525;BME280;8375;33.594;-117.718;2023-05-22T02:02:30;100159.25;;;17.89;87.46
16525;BME280;8375;33.594;-117.718;2023-05-22T02:05:00;100162.00;;;17.96;87.14
16525;BME280;8375;33.594;-117.718;2023-05-22T02:07:33;100173.38;;;18.05;86.58
16525;BME280;8375;33.594;-117.718;2023-05-22T02:10:05;100173.34;;;18.13;86.20
16525;BME280;8375;33.594;-117.718;2023-05-22T02:12:35;100176.47;;;18.00;86.27
16525;BME280;8375;33.594;-117.718;2023-05-22T02:15:06;100167.78;;;17.99;86.68
16525;BME280;8375;33.594;-117.718;2023-05-22T02:17:39;100174.19;;;17.88;87.03
16525;BME280;8375;33.594;-117.718;2023-05-22T02:20:10;100171.75;;;17.79;87.71
16525;BME280;8375;33.594;-117.718;2023-05-22T02:22:41;100182.59;;;17.67;88.44
16525;BME280;8375;33.594;-117.718;2023-05-22T02:25:11;100174.38;;;17.70;89.24
16525;BME280;8375;33.594;-117.718;2023-05-22T02:27:40;100191.09;;;17.61;89.44
16525;BME280;8375;33.594;-117.718;2023-05-22T02:30:10;100196.34;;;17.44;90.11
16525;BME280;8375;33.594;-117.718;2023-05-22T02:32:41;100189.63;;;17.34;90.82
16525;BME280;8375;33.594;-117.718;2023-05-22T02:35:09;100195.69;;;17.26;91.92
16525;BME280;8375;33.594;-117.718;2023-05-22T02:37:38;100197.31;;;17.19;92.92
16525;BME280;8375;33.594;-117.718;2023-05-22T02:40:08;100202.53;;;17.10;93.39
16525;BME280;8375;33.594;-117.718;2023-05-22T02:42:37;100200.66;;;16.94;93.77
16525;BME280;8375;33.594;-117.718;2023-05-22T02:45:06;100200.22;;;16.99;94.29
16525;BME280;8375;33.594;-117.718;2023-05-22T02:47:35;100208.38;;;16.96;94.40
16525;BME280;8375;33.594;-117.718;2023-05-22T02:50:06;100212.41;;;16.82;95.18
16525;BME280;8375;33.594;-117.718;2023-05-22T02:52:35;100207.97;;;16.74;96.68
16525;BME280;8375;33.594;-117.718;2023-05-22T02:55:05;100210.59;;;16.74;96.17
16525;BME280;8375;33.594;-117.718;2023-05-22T02:57:35;100225.28;;;16.59;96.28
16525;BME280;8375;33.594;-117.718;2023-05-22T03:00:04;100227.06;;;16.58;97.32
16525;BME280;8375;33.594;-117.718;2023-05-22T03:02:36;100224.94;;;16.53;96.78
16525;BME280;8375;33.594;-117.718;2023-05-22T03:05:08;100224.75;;;16.55;97.54
16525;BME280;8375;33.594;-117.718;2023-05-22T03:07:36;100230.47;;;16.50;97.02
16525;BME280;8375;33.594;-117.718;2023-05-22T03:10:06;100238.28;;;16.42;97.60
16525;BME280;8375;33.594;-117.718;2023-05-22T03:12:35;100246.47;;;16.39;97.67
16525;BME280;8375;33.594;-117.718;2023-05-22T03:15:04;100243.19;;;16.37;97.94
16525;BME280;8375;33.594;-117.718;2023-05-22T03:17:32;100243.22;;;16.45;98.10
16525;BME280;8375;33.594;-117.718;2023-05-22T03:20:01;100238.47;;;16.49;97.74
16525;BME280;8375;33.594;-117.718;2023-05-22T03:22:32;100247.78;;;16.43;97.85
16525;BME280;8375;33.594;-117.718;2023-05-22T03:25:01;100241.00;;;16.32;98.44
16525;BME280;8375;33.594;-117.718;2023-05-22T03:27:31;100242.91;;;16.22;99.43
16525;BME280;8375;33.594;-117.718;2023-05-22T03:30:00;100245.09;;;16.26;99.35
16525;BME280;8375;33.594;-117.718;2023-05-22T03:32:29;100251.78;;;16.29;99.09
16525;BME280;8375;33.594;-117.718;2023-05-22T03:34:58;100246.19;;;16.24;99.82
16525;BME280;8375;33.594;-117.718;2023-05-22T03:37:26;100251.66;;;16.31;100.00
16525;BME280;8375;33.594;-117.718;2023-05-22T03:39:57;100253.19;;;16.41;99.46
16525;BME280;8375;33.594;-117.718;2023-05-22T03:42:25;100254.69;;;16.44;98.32
16525;BME280;8375;33.594;-117.718;2023-05-22T03:44:54;100253.84;;;16.43;99.20
16525;BME280;8375;33.594;-117.718;2023-05-22T03:47:23;100261.41;;;16.47;98.57
16525;BME280;8375;33.594;-117.718;2023-05-22T03:49:51;100264.38;;;16.52;99.38
16525;BME280;8375;33.594;-117.718;2023-05-22T03:52:21;100271.25;;;16.53;98.87
16525;BME280;8375;33.594;-117.718;2023-05-22T03:54:50;100276.19;;;16.56;98.72
16525;BME280;8375;33.594;-117.718;2023-05-22T03:57:20;100283.53;;;16.52;97.86
16525;BME280;8375;33.594;-117.718;2023-05-22T03:59:49;100277.94;;;16.47;98.28
16525;BME280;8375;33.594;-117.718;2023-05-22T04:02:17;100282.59;;;16.35;99.04
16525;BME280;8375;33.594;-117.718;2023-05-22T04:04:47;100278.66;;;16.31;98.96
16525;BME280;8375;33.594;-117.718;2023-05-22T04:07:16;100280.72;;;16.19;100.00
16525;BME280;8375;33.594;-117.718;2023-05-22T04:09:45;100278.28;;;16.26;100.00
16525;BME280;8375;33.594;-117.718;2023-05-22T04:12:14;100277.94;;;16.21;100.00
16525;BME280;8375;33.594;-117.718;2023-05-22T04:14:44;100279.94;;;16.27;100.00
16525;BME280;8375;33.594;-117.718;2023-05-22T04:17:13;100282.47;;;16.37;100.00
16525;BME280;8375;33.594;-117.718;2023-05-22T04:19:42;100282.53;;;16.45;100.00
16525;BME280;8375;33.594;-117.718;2023-05-22T04:22:10;100284.25;;;16.36;99.50
16525;BME280;8375;33.594;-117.718;2023-05-22T04:24:39;100275.94;;;16.41;100.00
16525;BME280;8375;33.594;-117.718;2023-05-22T04:27:08;100281.50;;;16.38;99.83
16525;BME280;8375;33.594;-117.718;2023-05-22T04:29:36;100282.97;;;16.40;100.00
16525;BME280;8375;33.594;-117.718;2023-05-22T04:32:08;100282.72;;;16.25;99.48
16525;BME280;8375;33.594;-117.718;2023-05-22T04:34:37;100291.91;;;16.30;100.00
16525;BME280;8375;33.594;-117.718;2023-05-22T04:37:07;100298.44;;;16.25;100.00
16525;BME280;8375;33.594;-117.718;2023-05-22T04:39:35;100296.13;;;16.22;100.00
16525;BME280;8375;33.594;-117.718;2023-05-22T04:42:06;100297.47;;;16.26;100.00
16525;BME280;8375;33.594;-117.718;2023-05-22T04:44:34;100295.34;;;16.30;100.00
16525;BME280;8375;33.594;-117.718;2023-05-22T04:47:04;100303.72;;;16.34;100.00
16525;BME280;8375;33.594;-117.718;2023-05-22T04:49:34;100305.69;;;16.32;100.00
16525;BME280;8375;33.594;-117.718;2023-05-22T04:52:03;100308.56;;;16.20;100.00
16525;BME280;8375;33.594;-117.718;2023-05-22T04:54:33;100312.66;;;16.23;100.00
16525;BME280;8375;33.594;-117.718;2023-05-22T04:57:01;100306.91;;;16.19;100.00
16525;BME280;8375;33.594;-117.718;2023-05-22T04:59:31;100298.44;;;16.25;100.00
16525;BME280;8375;33.594;-117.718;2023-05-22T05:02:03;100299.41;;;16.24;100.00
16525;BME280;8375;33.594;-117.718;2023-05-22T05:04:34;100306.91;;;16.19;100.00
16525;BME280;8375;33.594;-117.718;2023-05-22T05:07:03;100301.38;;;16.22;100.00
16525;BME280;8375;33.594;-117.718;2023-05-22T05:09:32;100304.66;;;16.24;100.00
16525;BME280;8375;33.594;-117.718;2023-05-22T05:12:01;100305.63;;;16.23;100.00
16525;BME280;8375;33.594;-117.718;2023-05-22T05:14:30;100303.00;;;16.23;100.00
16525;BME280;8375;33.594;-117.718;2023-05-22T05:16:59;100301.50;;;16.21;100.00
16525;BME280;8375;33.594;-117.718;2023-05-22T05:19:27;100299.91;;;16.02;100.00
16525;BME280;8375;33.594;-117.718;2023-05-22T05:21:58;100297.66;;;15.89;100.00
16525;BME280;8375;33.594;-117.718;2023-05-22T05:24:27;100297.50;;;15.90;100.00
16525;BME280;8375;33.594;-117.718;2023-05-22T05:26:56;100303.25;;;15.94;100.00
16525;BME280;8375;33.594;-117.718;2023-05-22T05:29:24;100302.44;;;15.93;100.00
16525;BME280;8375;33.594;-117.718;2023-05-22T05:31:53;100294.59;;;15.93;100.00
16525;BME280;8375;33.594;-117.718;2023-05-22T05:34:22;100297.41;;;16.00;100.00
16525;BME280;8375;33.594;-117.718;2023-05-22T05:36:50;100302.72;;;16.08;100.00
16525;BME280;8375;33.594;-117.718;2023-05-22T05:39:21;100293.09;;;16.09;100.00
16525;BME280;8375;33.594;-117.718;2023-05-22T05:41:50;100292.91;;;16.10;100.00
16525;BME280;8375;33.594;-117.718;2023-05-22T05:44:19;100290.03;;;15.95;100.00
16525;BME280;8375;33.594;-117.718;2023-05-22T05:46:47;100286.13;;;16.00;100.00
16525;BME280;8375;33.594;-117.718;2023-05-22T05:49:19;100285.59;;;15.96;100.00
16525;BME280;8375;33.594;-117.718;2023-05-22T05:51:48;100282.47;;;15.92;100.00
16525;BME280;8375;33.594;-117.718;2023-05-22T05:54:17;100276.56;;;15.90;100.00
16525;BME280;8375;33.594;-117.718;2023-05-22T05:56:47;100282.75;;;15.89;100.00
16525;BME280;8375;33.594;-117.718;2023-05-22T05:59:16;100279.03;;;15.92;100.00
16525;BME280;8375;33.594;-117.718;2023-05-22T06:01:45;100276.56;;;15.90;100.00
16525;BME280;8375;33.594;-117.718;2023-05-22T06:04:14;100275.16;;;15.86;100.00
16525;BME280;8375;33.594;-117.718;2023-05-22T06:06:43;100270.41;;;15.81;100.00
16525;BME280;8375;33.594;-117.718;2023-05-22T06:09:13;100267.09;;;15.79;100.00
16525;BME280;8375;33.594;-117.718;2023-05-22T06:11:41;100258.41;;;15.79;100.00
16525;BME280;8375;33.594;-117.718;2023-05-22T06:14:12;100256.09;;;15.76;100.00
16525;BME280;8375;33.594;-117.718;2023-05-22T06:16:40;100250.00;;;15.67;100.00
16525;BME280;8375;33.594;-117.718;2023-05-22T06:19:09;100248.03;;;15.69;100.00
16525;BME280;8375;33.594;-117.718;2023-05-22T06:21:38;100253.03;;;15.62;100.00
16525;BME280;8375;33.594;-117.718;2023-05-22T06:24:06;100262.75;;;15.52;100.00
16525;BME280;8375;33.594;-117.718;2023-05-22T06:26:35;100261.13;;;15.51;100.00
16525;BME280;8375;33.594;-117.718;2023-05-22T06:29:04;100262.84;;;15.60;100.00
16525;BME280;8375;33.594;-117.718;2023-05-22T06:31:34;100258.28;;;15.62;100.00
16525;BME280;8375;33.594;-117.718;2023-05-22T06:34:04;100265.81;;;15.65;100.00
16525;BME280;8375;33.594;-117.718;2023-05-22T06:36:33;100263.50;;;15.62;100.00
16525;BME280;8375;33.594;-117.718;2023-05-22T06:39:01;100263.13;;;15.57;100.00
16525;BME280;8375;33.594;-117.718;2023-05-22T06:41:30;100269.88;;;15.60;100.00
16525;BME280;8375;33.594;-117.718;2023-05-22T06:44:00;100268.06;;;15.60;100.00
16525;BME280;8375;33.594;-117.718;2023-05-22T06:46:29;100264.19;;;15.64;100.00
16525;BME280;8375;33.594;-117.718;2023-05-22T06:48:59;100262.41;;;15.65;100.00
16525;BME280;8375;33.594;-117.718;2023-05-22T06:51:28;100260.81;;;15.54;100.00
16525;BME280;8375;33.594;-117.718;2023-05-22T06:53:57;100255.44;;;15.55;100.00
16525;BME280;8375;33.594;-117.718;2023-05-22T06:56:26;100259.84;;;15.55;100.00
16525;BME280;8375;33.594;-117.718;2023-05-22T06:58:54;100268.28;;;15.49;100.00
16525;BME280;8375;33.594;-117.718;2023-05-22T07:01:24;100268.28;;;15.49;100.00
16525;BME280;8375;33.594;-117.718;2023-05-22T07:03:58;100266.94;;;15.45;100.00
16525;BME280;8375;33.594;-117.718;2023-05-22T07:06:27;100264.31;;;15.45;100.00
16525;BME280;8375;33.594;-117.718;2023-05-22T07:08:57;100261.03;;;15.43;100.00
16525;BME280;8375;33.594;-117.718;2023-05-22T07:11:27;100263.34;;;15.46;100.00
16525;BME280;8375;33.594;-117.718;2023-05-22T07:13:55;100262.31;;;15.38;100.00
16525;BME280;8375;33.594;-117.718;2023-05-22T07:16:25;100266.44;;;15.41;100.00
16525;BME280;8375;33.594;-117.718;2023-05-22T07:18:55;100258.41;;;15.43;100.00
16525;BME280;8375;33.594;-117.718;2023-05-22T07:21:25;100264.31;;;15.45;100.00
16525;BME280;8375;33.594;-117.718;2023-05-22T07:23:56;100261.78;;;15.35;100.00
16525;BME280;8375;33.594;-117.718;2023-05-22T07:26:24;100261.84;;;15.25;100.00
16525;BME280;8375;33.594;-117.718;2023-05-22T12:14:02;100081.28;;;14.44;100.00
16525;BME280;8375;33.594;-117.718;2023-05-22T12:16:34;100084.28;;;14.49;100.00
16525;BME280;8375;33.594;-117.718;2023-05-22T12:19:06;100089.09;;;14.44;100.00
16525;BME280;8375;33.594;-117.718;2023-05-22T12:21:37;100087.63;;;14.42;100.00
16525;BME280;8375;33.594;-117.718;2023-05-22T12:24:07;100085.00;;;14.42;100.00
16525;BME280;8375;33.594;-117.718;2023-05-22T12:26:36;100084.34;;;14.40;100.00
16525;BME280;8375;33.594;-117.718;2023-05-22T12:29:06;100083.78;;;14.36;100.00
16525;BME280;8375;33.594;-117.718;2023-05-22T12:31:36;100079.69;;;14.33;100.00
16525;BME280;8375;33.594;-117.718;2023-05-22T12:34:06;100075.88;;;14.28;100.00
16525;BME280;8375;33.594;-117.718;2023-05-22T12:36:36;100076.78;;;14.36;100.00
16525;BME280;8375;33.594;-117.718;2023-05-22T12:39:07;100084.19;;;14.41;100.00
16525;BME280;8375;33.594;-117.718;2023-05-22T12:41:36;100087.47;;;14.43;100.00
16525;BME280;8375;33.594;-117.718;2023-05-22T12:44:07;100084.06;;;14.43;100.00
16525;BME280;8375;33.594;-117.718;2023-05-22T12:46:35;100084.56;;;14.46;100.00
16525;BME280;8375;33.594;-117.718;2023-05-22T12:49:04;100085.25;;;14.48;100.00
16525;BME280;8375;33.594;-117.718;2023-05-22T12:51:33;100092.41;;;14.46;100.00
16525;BME280;8375;33.594;-117.718;2023-05-22T12:54:02;100085.09;;;14.50;100.00
16525;BME280;8375;33.594;-117.718;2023-05-22T12:56:31;100082.88;;;14.55;100.00
16525;BME280;8375;33.594;-117.718;2023-05-22T12:59:00;100085.03;;;14.60;100.00
16525;BME280;8375;33.594;-117.718;2023-05-22T13:01:31;100088.03;;;14.65;100.00
16525;BME280;8375;33.594;-117.718;2023-05-22T13:03:59;100079.63;;;14.71;100.00
16525;BME280;8375;33.594;-117.718;2023-05-22T13:06:29;100085.69;;;14.72;100.00
16525;BME280;8375;33.594;-117.718;2023-05-22T13:08:58;100083.34;;;14.69;100.00
16525;BME280;8375;33.594;-117.718;2023-05-22T13:11:26;100081.94;;;14.74;100.00
16525;BME280;8375;33.594;-117.718;2023-05-22T13:13:55;100088.13;;;14.73;100.00
16525;BME280;8375;33.594;-117.718;2023-05-22T13:16:24;100090.47;;;14.76;100.00
16525;BME280;8375;33.594;-117.718;2023-05-22T13:18:54;100094.88;;;14.76;100.00
16525;BME280;8375;33.594;-117.718;2023-05-22T13:21:23;100100.31;;;14.82;100.00
16525;BME280;8375;33.594;-117.718;2023-05-22T13:23:51;100100.84;;;14.86;100.00
16525;BME280;8375;33.594;-117.718;2023-05-22T13:26:20;100101.81;;;14.85;100.00
16525;BME280;8375;33.594;-117.718;2023-05-22T13:28:49;100101.66;;;14.87;100.00
16525;BME280;8375;33.594;-117.718;2023-05-22T13:31:17;100099.72;;;14.89;100.00
16525;BME280;8375;33.594;-117.718;2023-05-22T13:33:47;100099.44;;;14.92;100.00
16525;BME280;8375;33.594;-117.718;2023-05-22T13:36:17;100101.06;;;14.93;100.00
16525;BME280;8375;33.594;-117.718;2023-05-22T13:38:46;100095.84;;;14.93;100.00
16525;BME280;8375;33.594;-117.718;2023-05-22T13:41:15;100108.91;;;14.93;100.00
16525;BME280;8375;33.594;-117.718;2023-05-22T13:43:44;100101.38;;;14.90;100.00
16525;BME280;8375;33.594;-117.718;2023-05-22T13:46:12;100103.00;;;14.91;100.00
16525;BME280;8375;33.594;-117.718;2023-05-22T13:48:41;100104.53;;;14.93;100.00
16525;BME280;8375;33.594;-117.718;2023-05-22T13:51:09;100109.81;;;15.02;100.00
16525;BME280;8375;33.594;-117.718;2023-05-22T13:53:40;100103.94;;;15.00;100.00
16525;BME280;8375;33.594;-117.718;2023-05-22T13:56:08;100105.69;;;14.99;100.00
16525;BME280;8375;33.594;-117.718;2023-05-22T13:58:37;100106.91;;;15.05;100.00
16525;BME280;8375;33.594;-117.718;2023-05-22T14:01:05;100114.09;;;15.03;100.00
16525;BME280;8375;33.594;-117.718;2023-05-22T14:03:34;100110.63;;;15.02;100.00
16525;BME280;8375;33.594;-117.718;2023-05-22T14:06:03;100120.66;;;15.07;100.00
16525;BME280;8375;33.594;-117.718;2023-05-22T14:08:32;100120.50;;;15.08;100.00
16525;BME280;8375;33.594;-117.718;2023-05-22T14:11:02;100124.63;;;15.11;100.00
16525;BME280;8375;33.594;-117.718;2023-05-22T14:13:31;100135.56;;;15.15;100.00
16525;BME280;8375;33.594;-117.718;2023-05-22T14:15:59;100128.41;;;15.17;100.00
16525;BME280;8375;33.594;-117.718;2023-05-22T14:18:29;100134.31;;;15.19;100.00
16525;BME280;8375;33.594;-117.718;2023-05-22T14:20:58;100128.09;;;15.20;100.00
16525;BME280;8375;33.594;-117.718;2023-05-22T14:23:27;100129.91;;;15.19;100.00
16525;BME280;8375;33.594;-117.718;2023-05-22T14:25:55;100136.78;;;15.20;100.00
16525;BME280;8375;33.594;-117.718;2023-05-22T14:28:25;100140.50;;;15.18;100.00
16525;BME280;8375;33.594;-117.718;2023-05-22T14:30:55;100142.63;;;15.14;100.00
16525;BME280;8375;33.594;-117.718;2023-05-22T14:33:23;100136.25;;;15.17;100.00
16525;BME280;8375;33.594;-117.718;2023-05-22T14:35:52;100143.00;;;15.19;100.00
16525;BME280;8375;33.594;-117.718;2023-05-22T14:38:21;100143.00;;;15.19;100.00
16525;BME280;8375;33.594;-117.718;2023-05-22T14:40:49;100149.03;;;15.20;100.00
16525;BME280;8375;33.594;-117.718;2023-05-22T14:43:18;100150.75;;;15.11;100.00
16525;BME280;8375;33.594;-117.718;2023-05-22T14:45:48;100155.53;;;15.16;100.00
16525;BME280;8375;33.594;-117.718;2023-05-22T14:48:17;100157.72;;;15.20;100.00
16525;BME280;8375;33.594;-117.718;2023-05-22T14:50:51;100159.56;;;15.28;100.00
16525;BME280;8375;33.594;-117.718;2023-05-22T14:53:20;100157.97;;;15.35;100.00
16525;BME280;8375;33.594;-117.718;2023-05-22T14:55:50;100156.56;;;15.41;100.00
16525;BME280;8375;33.594;-117.718;2023-05-22T14:58:19;100166.19;;;15.40;100.00
16525;BME280;8375;33.594;-117.718;2023-05-22T15:00:49;100168.16;;;15.38;100.00
16525;BME280;8375;33.594;-117.718;2023-05-22T15:03:18;100162.63;;;15.42;100.00
16525;BME280;8375;33.594;-117.718;2023-05-22T15:05:47;100164.78;;;15.46;100.00
16525;BME280;8375;33.594;-117.718;2023-05-22T15:08:15;100155.81;;;15.49;100.00
16525;BME280;8375;33.594;-117.718;2023-05-22T15:10:45;100152.16;;;15.42;100.00
16525;BME280;8375;33.594;-117.718;2023-05-22T15:13:14;100164.63;;;15.48;100.00
16525;BME280;8375;33.594;-117.718;2023-05-22T15:15:43;100164.19;;;15.52;100.00
16525;BME280;8375;33.594;-117.718;2023-05-22T15:18:13;100164.84;;;15.54;100.00
16525;BME280;8375;33.594;-117.718;2023-05-22T15:20:42;100166.19;;;15.59;100.00
16525;BME280;8375;33.594;-117.718;2023-05-22T15:23:10;100171.81;;;15.64;100.00
16525;BME280;8375;33.594;-117.718;2023-05-22T15:25:39;100164.63;;;15.66;100.00
16525;BME280;8375;33.594;-117.718;2023-05-22T15:28:08;100172.66;;;15.73;100.00
16525;BME280;8375;33.594;-117.718;2023-05-22T15:30:36;100173.03;;;15.78;100.00
16525;BME280;8375;33.594;-117.718;2023-05-22T15:33:07;100180.13;;;15.86;100.00
16525;BME280;8375;33.594;-117.718;2023-05-22T15:35:38;100173.25;;;15.84;100.00
16525;BME280;8375;33.594;-117.718;2023-05-22T15:38:07;100174.63;;;15.89;100.00
16525;BME280;8375;33.594;-117.718;2023-05-22T15:40:38;100173.09;;;15.86;100.00
16525;BME280;8375;33.594;-117.718;2023-05-22T15:43:07;100171.44;;;15.85;100.00
16525;BME280;8375;33.594;-117.718;2023-05-22T15:45:37;100174.75;;;15.87;100.00
16525;BME280;8375;33.594;-117.718;2023-05-22T15:48:06;100172.00;;;15.89;100.00
16525;BME280;8375;33.594;-117.718;2023-05-22T15:50:34;100172.91;;;15.97;100.00
16525;BME280;8375;33.594;-117.718;2023-05-22T15:53:05;100180.63;;;16.07;100.00
16525;BME280;8375;33.594;-117.718;2023-05-22T15:55:34;100178.22;;;16.14;100.00
16525;BME280;8375;33.594;-117.718;2023-05-22T15:58:02;100178.72;;;16.18;100.00
16525;BME280;8375;33.594;-117.718;2023-05-22T16:00:33;100174.81;;;16.22;100.00
16525;BME280;8375;33.594;-117.718;2023-05-22T16:03:06;100181.06;;;16.29;100.00
16525;BME280;8375;33.594;-117.718;2023-05-22T16:05:35;100177.69;;;16.37;100.00
16525;BME280;8375;33.594;-117.718;2023-05-22T16:08:06;100171.94;;;16.33;100.00
16525;BME280;8375;33.594;-117.718;2023-05-22T16:10:36;100165.88;;;16.33;100.00
16525;BME280;8375;33.594;-117.718;2023-05-22T16:13:07;100181.88;;;16.21;100.00
16525;BME280;8375;33.594;-117.718;2023-05-22T16:15:36;100180.94;;;16.31;100.00
16525;BME280;8375;33.594;-117.718;2023-05-22T16:18:06;100185.19;;;16.32;100.00
16525;BME280;8375;33.594;-117.718;2023-05-22T16:20:36;100188.94;;;16.29;100.00
16525;BME280;8375;33.594;-117.718;2023-05-22T16:23:07;100191.16;;;16.42;100.00
16525;BME280;8375;33.594;-117.718;2023-05-22T16:25:36;100193.44;;;16.45;100.00
16525;BME280;8375;33.594;-117.718;2023-05-22T16:28:04;100201.34;;;16.53;100.00
16525;BME280;8375;33.594;-117.718;2023-05-22T16:30:33;100193.00;;;16.58;100.00
16525;BME280;8375;33.594;-117.718;2023-05-22T16:33:02;100201.50;;;16.52;100.00
16525;BME280;8375;33.594;-117.718;2023-05-22T16:35:30;100201.69;;;16.59;100.00
16525;BME280;8375;33.594;-117.718;2023-05-22T16:37:59;100206.00;;;16.68;100.00
16525;BME280;8375;33.594;-117.718;2023-05-22T16:40:29;100203.50;;;16.66;100.00
16525;BME280;8375;33.594;-117.718;2023-05-22T16:42:58;100198.44;;;16.65;100.00
16525;BME280;8375;33.594;-117.718;2023-05-22T16:45:26;100189.91;;;16.63;100.00
16525;BME280;8375;33.594;-117.718;2023-05-22T16:47:55;100195.31;;;16.61;100.00
16525;BME280;8375;33.594;-117.718;2023-05-22T16:50:24;100192.53;;;16.63;100.00
16525;BME280;8375;33.594;-117.718;2023-05-22T16:52:52;100193.88;;;16.67;100.00
16525;BME280;8375;33.594;-117.718;2023-05-22T16:55:21;100192.53;;;16.63;100.00
16525;BME280;8375;33.594;-117.718;2023-05-22T16:57:51;100191.38;;;16.65;100.00
16525;BME280;8375;33.594;-117.718;2023-05-22T17:00:20;100193.38;;;16.71;100.00
16525;BME280;8375;33.594;-117.718;2023-05-22T17:02:49;100190.22;;;16.60;100.00
16525;BME280;8375;33.594;-117.718;2023-05-22T17:05:17;100191.84;;;16.52;100.00
16525;BME280;8375;33.594;-117.718;2023-05-22T17:07:46;100188.28;;;16.62;100.00
16525;BME280;8375;33.594;-117.718;2023-05-22T17:10:15;100189.25;;;16.61;100.00
16525;BME280;8375;33.594;-117.718;2023-05-22T17:12:44;100182.06;;;16.63;100.00
16525;BME280;8375;33.594;-117.718;2023-05-22T17:15:14;100183.66;;;16.55;100.00
16525;BME280;8375;33.594;-117.718;2023-05-22T17:17:43;100187.31;;;16.71;100.00
16525;BME280;8375;33.594;-117.718;2023-05-22T17:20:11;100189.66;;;16.82;100.00
16525;BME280;8375;33.594;-117.718;2023-05-22T17:22:40;100186.78;;;17.02;100.00